Century, Florida
Current Conditions -  °F | °C
As of 3:56 AM on Wednesday 26 Nov 2014 (Local Time) from KNSE Reporting Station
Clear Clear  
Wind Chill: 37°   Ceiling: Unl
Heat Index: 42°   Visibility: 10mi
Dew Point: 29°   Wind: 9mph
Humidity: 60%   Direction: 310°NW
Pressure: 30.14"   Gusts: NA
Location:  30.97°N, 87.26°W
Report Text: KNSE 260956Z AUTO 31008KT 10SM CLR 06/M02 A3014 RMK AO2 SLP196 T00561017 $
Loading
Personal Weather Stations






























Interactive Weather Map New forecast layout! Learn more

10-Day Weather Forecast

Advertisements
Track Severe Weather on mobile